Time;durP1;ratioP1;P1;durP2;ratioP2;P2;SDS_P1;SDS_P2;PMS_P1;PMS_P2;Temp;Humidity;BMP_temperature;BMP_pressure;BME280_temperature;BME280_humidity;BME280_pressure;Samples;Min_cycle;Max_cycle;Signal;HPM_P1;HPM_P2
2022/09/04 00:02:34;;;;;;;11.17;10.17;;;14.70;99.90;;;;;;4931386;29;20220;-77
2022/09/04 00:05:08;;;;;;;12.20;11.10;;;14.70;99.90;;;;;;4937206;29;20263;-77
2022/09/04 00:07:56;;;;;;;11.13;10.20;;;14.70;99.90;;;;;;4936558;29;20673;-77
2022/09/04 00:10:29;;;;;;;10.10;9.30;;;14.70;99.90;;;;;;4931592;29;20218;-77
2022/09/04 00:13:04;;;;;;;10.30;9.30;;;14.70;99.90;;;;;;4936966;29;20711;-78
2022/09/04 00:15:39;;;;;;;10.23;9.43;;;14.70;99.90;;;;;;4936289;29;20767;-77
2022/09/04 00:18:09;;;;;;;10.57;9.73;;;14.70;99.90;;;;;;4937407;29;20239;-77
2022/09/04 00:20:40;;;;;;;10.73;9.93;;;14.60;99.90;;;;;;4936390;29;20196;-77
2022/09/04 00:23:15;;;;;;;10.70;10.00;;;14.60;99.90;;;;;;4935395;29;20583;-77
2022/09/04 00:25:50;;;;;;;11.23;10.30;;;14.70;99.90;;;;;;4938199;29;20668;-77
2022/09/04 00:28:28;;;;;;;11.07;10.10;;;14.60;99.90;;;;;;4931094;29;20737;-77
2022/09/04 00:31:03;;;;;;;13.63;11.70;;;14.60;99.90;;;;;;4939982;29;20188;-77
2022/09/04 00:33:37;;;;;;;10.03;9.33;;;14.50;99.90;;;;;;4940015;29;20237;-77
2022/09/04 00:36:05;;;;;;;9.77;9.13;;;14.50;99.90;;;;;;4941553;29;20245;-77
2022/09/04 00:38:40;;;;;;;8.13;7.47;;;14.40;99.90;;;;;;4940050;29;20721;-77
2022/09/04 00:41:15;;;;;;;5.43;4.93;;;14.40;99.90;;;;;;4939574;29;20680;-77
2022/09/04 00:44:17;;;;;;;6.30;5.70;;;14.50;99.90;;;;;;4939702;29;20239;-77
2022/09/04 00:47:25;;;;;;;8.33;7.63;;;14.50;99.90;;;;;;4895450;29;20200;-77
2022/09/04 00:50:37;;;;;;;10.07;9.27;;;14.50;99.90;;;;;;4938732;29;20704;-77
2022/09/04 00:53:34;;;;;;;10.40;9.70;;;14.50;99.90;;;;;;4922562;29;20239;-77
2022/09/04 00:56:37;;;;;;;10.67;9.90;;;14.40;99.90;;;;;;4939246;29;20607;-77
2022/09/04 00:59:17;;;;;;;8.87;8.07;;;14.40;99.90;;;;;;4933024;29;20265;-77
2022/09/04 01:01:46;;;;;;;9.10;8.30;;;14.40;99.90;;;;;;4940456;29;20226;-77
2022/09/04 01:04:33;;;;;;;8.20;7.60;;;14.40;99.90;;;;;;4932721;29;20202;-77
2022/09/04 01:07:25;;;;;;;7.90;7.30;;;14.30;99.90;;;;;;4939312;29;20203;-77
2022/09/04 01:10:19;;;;;;;9.00;8.13;;;14.30;99.90;;;;;;4940352;29;20216;-78
2022/09/04 01:12:51;;;;;;;8.07;7.43;;;14.20;99.90;;;;;;4940183;29;20223;-77
2022/09/04 01:15:24;;;;;;;7.93;7.23;;;14.20;99.90;;;;;;4940472;29;20199;-77
2022/09/04 01:18:03;;;;;;;8.33;7.67;;;14.20;99.90;;;;;;4940509;29;20209;-77
2022/09/04 01:20:51;;;;;;;7.93;7.23;;;14.20;99.90;;;;;;4940447;29;20205;-77
2022/09/04 01:23:44;;;;;;;8.63;7.83;;;14.20;99.90;;;;;;4931746;29;20224;-78
2022/09/04 01:26:22;;;;;;;8.20;7.60;;;14.20;99.90;;;;;;4931470;29;20258;-77
2022/09/04 01:29:01;;;;;;;9.53;8.83;;;14.10;99.90;;;;;;4928292;29;20195;-78
2022/09/04 01:31:38;;;;;;;8.20;7.60;;;14.10;99.90;;;;;;4938737;29;20258;-77
2022/09/04 01:34:22;;;;;;;9.00;8.40;;;14.20;99.90;;;;;;4940071;29;20207;-77
2022/09/04 01:36:56;;;;;;;8.70;8.10;;;14.20;99.90;;;;;;4949879;28;20264;-77
2022/09/04 01:39:26;;;;;;;10.70;10.00;;;14.20;99.90;;;;;;4938763;29;20636;-77
2022/09/04 01:42:00;;;;;;;10.60;9.90;;;14.10;99.90;;;;;;4938918;29;20683;-78
2022/09/04 01:44:27;;;;;;;10.50;9.80;;;14.10;99.90;;;;;;4938278;29;20215;-77
2022/09/04 01:47:02;;;;;;;10.23;9.43;;;14.10;99.90;;;;;;4940154;29;20248;-77
2022/09/04 01:49:36;;;;;;;10.07;9.37;;;14.10;99.90;;;;;;4939677;29;20211;-77
2022/09/04 01:52:12;;;;;;;11.40;10.50;;;14.10;99.90;;;;;;4938161;29;20230;-77
2022/09/04 01:54:57;;;;;;;11.10;10.30;;;14.10;99.90;;;;;;4934195;29;20198;-77
2022/09/04 01:57:45;;;;;;;11.17;10.27;;;14.10;99.90;;;;;;4933735;29;20224;-77
2022/09/04 02:00:15;;;;;;;11.73;10.93;;;14.20;99.90;;;;;;4930616;29;20204;-78
2022/09/04 02:03:02;;;;;;;11.40;10.50;;;14.20;99.90;;;;;;4938934;29;20219;-77
2022/09/04 02:05:40;;;;;;;11.27;10.57;;;14.20;99.90;;;;;;4938375;29;20235;-77
2022/09/04 02:08:22;;;;;;;11.70;10.90;;;14.20;99.90;;;;;;4938054;29;20258;-77
2022/09/04 02:10:56;;;;;;;11.53;10.53;;;14.20;99.90;;;;;;4940643;29;20699;-77
2022/09/04 02:13:34;;;;;;;11.47;10.57;;;14.20;99.90;;;;;;4939736;29;20692;-77
2022/09/04 02:16:14;;;;;;;11.70;10.80;;;14.20;99.90;;;;;;4938109;29;20210;-78
2022/09/04 02:18:50;;;;;;;11.57;10.63;;;14.20;99.90;;;;;;4937605;29;20207;-77
2022/09/04 02:21:25;;;;;;;10.77;10.07;;;14.20;99.90;;;;;;4932632;29;20199;-77
2022/09/04 02:24:01;;;;;;;11.20;10.50;;;14.20;99.90;;;;;;4937831;29;20207;-77
2022/09/04 02:26:34;;;;;;;11.63;10.83;;;14.10;99.90;;;;;;4937980;29;20238;-77
2022/09/04 02:29:09;;;;;;;12.37;11.10;;;14.10;99.90;;;;;;4937433;29;20752;-77
2022/09/04 02:31:48;;;;;;;11.87;10.93;;;14.10;99.90;;;;;;4938759;29;20584;-77
2022/09/04 02:34:24;;;;;;;11.27;10.50;;;14.10;99.90;;;;;;4946242;29;20282;-78
2022/09/04 02:36:59;;;;;;;10.63;9.90;;;14.10;99.90;;;;;;4937541;29;20210;-78
2022/09/04 02:39:42;;;;;;;10.60;9.90;;;14.00;99.90;;;;;;4938768;29;20198;-77
2022/09/04 02:42:18;;;;;;;11.07;10.37;;;14.00;99.90;;;;;;4935929;29;20259;-77
2022/09/04 02:44:58;;;;;;;11.27;10.57;;;14.00;99.90;;;;;;4938807;29;20211;-77
2022/09/04 02:47:31;;;;;;;11.83;10.83;;;14.00;99.90;;;;;;4937640;29;20231;-77
2022/09/04 02:50:03;;;;;;;11.67;10.87;;;14.00;99.90;;;;;;4937213;29;20227;-77
2022/09/04 02:53:00;;;;;;;11.60;10.80;;;14.00;99.90;;;;;;4938411;29;20735;-77
2022/09/04 02:55:45;;;;;;;11.20;10.43;;;13.90;99.90;;;;;;4926758;29;20207;-77
2022/09/04 02:58:21;;;;;;;11.07;10.27;;;13.90;99.90;;;;;;4923702;29;20556;-77
2022/09/04 03:00:55;;;;;;;11.47;10.70;;;13.80;99.90;;;;;;4937377;29;20254;-78
2022/09/04 03:03:29;;;;;;;11.27;10.30;;;13.80;99.90;;;;;;4936767;29;20230;-77
2022/09/04 03:06:01;;;;;;;11.03;10.30;;;13.80;99.90;;;;;;4936238;29;20568;-78
2022/09/04 03:08:36;;;;;;;11.00;10.20;;;13.80;99.90;;;;;;4936248;29;20199;-77
2022/09/04 03:11:08;;;;;;;11.70;10.90;;;13.70;99.90;;;;;;4937181;29;20638;-77
2022/09/04 03:13:40;;;;;;;11.60;10.90;;;13.70;99.90;;;;;;4935910;29;20227;-76
2022/09/04 03:16:17;;;;;;;11.10;10.30;;;13.70;99.90;;;;;;4930703;29;20238;-76
2022/09/04 03:19:01;;;;;;;10.90;10.10;;;13.60;99.90;;;;;;4930844;29;20245;-76
2022/09/04 03:21:35;;;;;;;10.83;10.13;;;13.60;99.90;;;;;;4926365;29;20208;-75
2022/09/04 03:24:08;;;;;;;11.03;10.30;;;13.60;99.90;;;;;;4932237;29;20258;-75
2022/09/04 03:26:37;;;;;;;10.70;10.00;;;13.60;99.90;;;;;;4933254;29;20207;-75
2022/09/04 03:29:13;;;;;;;10.93;10.20;;;13.50;99.90;;;;;;4934421;29;20211;-75
2022/09/04 03:31:49;;;;;;;10.60;9.90;;;13.50;99.90;;;;;;4934380;29;20250;-75
2022/09/04 03:34:26;;;;;;;10.50;9.80;;;13.50;99.90;;;;;;4932433;29;20684;-75
2022/09/04 03:37:07;;;;;;;10.90;10.20;;;13.50;99.90;;;;;;4930431;29;20691;-75
2022/09/04 03:39:45;;;;;;;10.97;10.27;;;13.40;99.90;;;;;;4930319;29;20214;-75
2022/09/04 03:42:18;;;;;;;11.10;10.30;;;13.40;99.90;;;;;;4930015;29;20233;-75
2022/09/04 03:44:56;;;;;;;10.30;9.67;;;13.40;99.90;;;;;;4934213;29;20262;-75
2022/09/04 03:47:35;;;;;;;10.53;9.93;;;13.40;99.90;;;;;;4936172;29;20203;-75
2022/09/04 03:50:13;;;;;;;10.43;9.80;;;13.30;99.90;;;;;;4935513;29;20207;-75
2022/09/04 03:52:50;;;;;;;11.40;10.60;;;13.30;99.90;;;;;;4933160;29;20238;-75
2022/09/04 03:55:35;;;;;;;10.40;9.60;;;13.30;99.90;;;;;;4926929;29;20276;-75
2022/09/04 03:58:12;;;;;;;10.60;9.90;;;13.30;99.90;;;;;;4934364;29;20199;-75
2022/09/04 04:00:55;;;;;;;10.93;10.23;;;13.30;99.90;;;;;;4934448;29;20253;-75
2022/09/04 04:03:51;;;;;;;10.50;9.90;;;13.30;99.90;;;;;;4927857;29;20704;-75
2022/09/04 04:06:26;;;;;;;10.50;9.80;;;13.30;99.90;;;;;;4930330;29;20211;-75
2022/09/04 04:09:13;;;;;;;10.57;9.87;;;13.30;99.90;;;;;;4934695;29;20203;-76
2022/09/04 04:11:59;;;;;;;10.37;9.63;;;13.30;99.90;;;;;;4932783;29;20242;-77
2022/09/04 04:14:45;;;;;;;10.57;9.87;;;13.30;99.90;;;;;;4928620;29;20209;-77
2022/09/04 04:17:30;;;;;;;10.40;9.70;;;13.30;99.90;;;;;;4927276;29;20249;-77
2022/09/04 04:20:13;;;;;;;10.20;9.57;;;13.20;99.90;;;;;;4934657;29;20273;-77
2022/09/04 04:23:05;;;;;;;10.50;9.80;;;13.20;99.90;;;;;;4934624;29;20269;-76
2022/09/04 04:25:50;;;;;;;10.60;9.90;;;13.20;99.90;;;;;;4944624;28;20209;-77
2022/09/04 04:28:28;;;;;;;10.87;10.17;;;13.10;99.90;;;;;;4931997;29;20632;-76
2022/09/04 04:31:05;;;;;;;10.83;10.13;;;13.10;99.90;;;;;;4933200;29;20246;-78
2022/09/04 04:33:42;;;;;;;11.00;10.30;;;13.10;99.90;;;;;;4933417;29;20217;-76
2022/09/04 04:36:21;;;;;;;11.23;10.23;;;13.10;99.90;;;;;;4935026;29;20206;-77
2022/09/04 04:39:10;;;;;;;11.53;10.67;;;13.00;99.90;;;;;;4933453;29;20202;-77
2022/09/04 04:42:06;;;;;;;10.73;10.03;;;13.10;99.90;;;;;;4932932;29;20223;-76
2022/09/04 04:47:53;;;;;;;10.40;9.77;;;13.10;99.90;;;;;;4933677;29;20191;-76
2022/09/04 04:50:26;;;;;;;10.23;9.63;;;13.10;99.90;;;;;;4932948;29;20262;-76
2022/09/04 04:53:02;;;;;;;10.53;9.80;;;13.10;99.90;;;;;;4934309;29;20227;-77
2022/09/04 04:55:40;;;;;;;10.20;9.60;;;13.20;99.90;;;;;;4934368;29;20671;-79
2022/09/04 04:58:29;;;;;;;10.80;10.10;;;13.20;99.90;;;;;;4932425;29;20206;-76
2022/09/04 05:01:04;;;;;;;10.77;10.07;;;13.20;99.90;;;;;;4927937;29;20203;-76
2022/09/04 05:03:46;;;;;;;10.60;9.90;;;13.30;99.90;;;;;;4934453;29;20692;-76
2022/09/04 05:06:20;;;;;;;10.80;10.10;;;13.20;99.90;;;;;;4932870;29;20245;-77
2022/09/04 05:08:58;;;;;;;9.70;9.00;;;13.30;99.90;;;;;;4935227;29;20194;-78
2022/09/04 05:11:34;;;;;;;10.60;9.80;;;13.30;99.90;;;;;;4935032;29;20218;-77
2022/09/04 05:14:10;;;;;;;10.47;9.77;;;13.40;99.90;;;;;;4933143;29;20612;-77
2022/09/04 05:16:48;;;;;;;10.10;9.40;;;13.40;99.90;;;;;;4924393;29;20203;-77
2022/09/04 05:19:24;;;;;;;11.10;10.40;;;13.50;99.90;;;;;;4931120;29;20242;-78
2022/09/04 05:21:59;;;;;;;10.53;9.83;;;13.60;99.90;;;;;;4937130;29;20221;-77
2022/09/04 05:24:35;;;;;;;10.37;9.67;;;13.60;99.90;;;;;;4938020;29;20250;-78
2022/09/04 05:27:10;;;;;;;10.43;9.73;;;13.70;99.90;;;;;;4939026;29;20748;-77
2022/09/04 05:29:50;;;;;;;11.77;10.97;;;13.80;99.90;;;;;;4931314;29;20206;-77
2022/09/04 05:32:24;;;;;;;11.53;10.73;;;13.90;99.90;;;;;;4932197;29;20242;-77
2022/09/04 05:35:01;;;;;;;11.40;10.60;;;13.90;99.90;;;;;;4935885;29;20699;-76
2022/09/04 05:37:35;;;;;;;11.47;10.67;;;14.00;99.90;;;;;;4936177;29;20274;-77
2022/09/04 05:40:09;;;;;;;11.33;10.63;;;14.10;99.90;;;;;;4934486;29;20250;-77
2022/09/04 05:42:44;;;;;;;10.90;10.20;;;14.30;99.90;;;;;;4937408;29;20730;-77
2022/09/04 05:45:21;;;;;;;11.30;10.60;;;14.40;99.90;;;;;;4932310;29;20218;-78
2022/09/04 05:48:00;;;;;;;11.83;11.13;;;14.50;99.90;;;;;;4937526;29;20199;-77
2022/09/04 05:50:52;;;;;;;11.40;10.60;;;14.60;99.90;;;;;;4937893;29;20349;-77
2022/09/04 05:53:57;;;;;;;11.40;10.70;;;14.70;99.90;;;;;;4929758;29;20218;-76
2022/09/04 05:56:51;;;;;;;10.33;9.63;;;14.80;99.90;;;;;;4932054;29;20206;-79
2022/09/04 05:59:50;;;;;;;12.20;11.30;;;15.00;99.90;;;;;;4933973;29;20267;-76
2022/09/04 06:02:42;;;;;;;12.03;11.23;;;15.10;99.90;;;;;;4929432;29;20219;-79
2022/09/04 06:05:35;;;;;;;11.07;10.37;;;15.10;99.90;;;;;;4939181;29;20199;-79
2022/09/04 06:08:18;;;;;;;11.20;10.50;;;15.20;99.90;;;;;;4930172;29;20221;-76
2022/09/04 06:10:59;;;;;;;11.93;11.00;;;15.20;99.90;;;;;;4933295;29;20219;-76
2022/09/04 06:13:51;;;;;;;11.60;10.90;;;15.30;99.90;;;;;;4933518;29;20220;-76
2022/09/04 06:16:51;;;;;;;12.53;11.63;;;15.40;99.90;;;;;;4923721;29;20264;-77
2022/09/04 06:19:46;;;;;;;10.83;10.13;;;15.50;99.90;;;;;;4929178;29;20207;-76
2022/09/04 06:22:29;;;;;;;10.20;9.60;;;15.60;99.90;;;;;;4927750;29;20722;-79
2022/09/04 06:25:33;;;;;;;11.20;10.40;;;15.70;99.90;;;;;;4934384;29;20916;-77
2022/09/04 06:28:14;;;;;;;9.47;8.77;;;15.80;99.90;;;;;;4937085;29;20204;-77
2022/09/04 06:30:53;;;;;;;10.70;9.97;;;15.90;99.90;;;;;;4935766;29;20218;-77
2022/09/04 06:33:56;;;;;;;10.27;9.57;;;15.90;99.90;;;;;;4926865;29;20305;-77
2022/09/04 06:36:41;;;;;;;10.10;9.50;;;15.90;99.90;;;;;;4909810;29;20257;-76
2022/09/04 06:39:40;;;;;;;7.30;6.80;;;16.00;99.90;;;;;;4925827;29;20210;-76
2022/09/04 06:42:36;;;;;;;10.07;9.47;;;16.10;99.90;;;;;;4936092;29;20272;-76
2022/09/04 06:45:19;;;;;;;11.20;10.50;;;16.10;99.90;;;;;;4922193;29;20261;-76
2022/09/04 06:48:09;;;;;;;10.67;9.87;;;16.20;99.90;;;;;;4936404;29;20261;-79
2022/09/04 06:50:46;;;;;;;10.17;9.47;;;16.30;99.90;;;;;;4935756;29;20290;-76
2022/09/04 06:53:20;;;;;;;10.33;9.67;;;16.40;99.90;;;;;;4928722;29;20222;-75
2022/09/04 06:56:00;;;;;;;10.70;10.00;;;16.50;99.90;;;;;;4935805;29;20210;-76
2022/09/04 06:58:47;;;;;;;4.87;4.47;;;16.60;99.90;;;;;;4935572;29;20199;-77
2022/09/04 07:01:19;;;;;;;3.87;3.57;;;16.70;99.90;;;;;;4927161;29;20203;-76
2022/09/04 07:04:02;;;;;;;8.93;8.33;;;16.80;99.90;;;;;;4935539;29;20582;-76
2022/09/04 07:06:44;;;;;;;9.63;8.93;;;16.90;99.90;;;;;;4935527;29;20668;-76
2022/09/04 07:09:16;;;;;;;10.00;9.30;;;17.00;99.90;;;;;;4921816;29;20199;-75
2022/09/04 07:12:05;;;;;;;8.40;7.90;;;17.10;99.90;;;;;;4932918;29;20230;-76
2022/09/04 07:14:53;;;;;;;8.07;7.50;;;17.30;99.90;;;;;;4927032;29;20276;-75
2022/09/04 07:17:28;;;;;;;7.47;6.87;;;17.60;99.90;;;;;;4931193;29;20195;-76
2022/09/04 07:20:12;;;;;;;8.37;7.77;;;17.90;99.90;;;;;;4937112;29;20215;-77
2022/09/04 07:22:59;;;;;;;10.00;9.27;;;18.30;99.90;;;;;;4940624;29;20313;-77
2022/09/04 07:25:32;;;;;;;4.10;3.70;;;18.90;99.90;;;;;;4931339;29;20271;-77
2022/09/04 07:28:25;;;;;;;7.87;7.37;;;19.40;99.90;;;;;;4935530;29;20203;-80
2022/09/04 07:30:58;;;;;;;5.00;4.10;;;20.00;99.90;;;;;;4934931;29;20564;-78
2022/09/04 07:33:35;;;;;;;5.67;5.10;;;20.50;99.90;;;;;;4934755;29;20790;-77
2022/09/04 07:36:10;;;;;;;9.73;8.80;;;20.90;99.90;;;;;;4933774;29;20214;-78
2022/09/04 07:38:43;;;;;;;8.30;7.73;;;21.40;99.90;;;;;;4933037;29;20202;-78
2022/09/04 07:41:15;;;;;;;8.70;8.10;;;22.00;99.90;;;;;;4934682;29;20203;-77
2022/09/04 07:43:49;;;;;;;3.60;3.30;;;22.30;99.90;;;;;;4934497;29;20238;-78
2022/09/04 07:46:22;;;;;;;9.40;8.80;;;22.60;99.90;;;;;;4930910;29;20218;-78
2022/09/04 07:48:56;;;;;;;9.47;8.87;;;22.80;99.90;;;;;;4933834;29;20199;-80
2022/09/04 07:51:31;;;;;;;10.00;9.40;;;23.00;99.90;;;;;;4934226;29;20619;-77
2022/09/04 07:54:20;;;;;;;9.27;8.60;;;23.00;99.90;;;;;;4934757;29;20246;-77
2022/09/04 07:57:04;;;;;;;3.63;3.33;;;23.30;99.90;;;;;;4928432;29;20199;-79
2022/09/04 07:59:43;;;;;;;4.93;4.53;;;23.80;99.90;;;;;;4935334;29;20258;-78
2022/09/04 08:02:38;;;;;;;6.13;5.63;;;24.30;99.90;;;;;;4927970;29;20800;-78
2022/09/04 08:05:20;;;;;;;4.97;4.67;;;24.10;99.90;;;;;;4936043;29;20207;-78
2022/09/04 08:08:20;;;;;;;4.60;4.20;;;24.10;99.90;;;;;;4936427;29;20266;-77
2022/09/04 08:11:05;;;;;;;4.20;3.80;;;24.40;99.90;;;;;;4937077;29;20203;-81
2022/09/04 08:13:50;;;;;;;6.63;6.13;;;24.60;99.90;;;;;;4934968;29;20231;-78
2022/09/04 08:16:27;;;;;;;8.00;7.50;;;24.40;99.90;;;;;;4935104;29;20198;-78
2022/09/04 08:19:10;;;;;;;7.20;6.60;;;24.50;99.90;;;;;;4935968;29;20293;-80
2022/09/04 08:21:40;;;;;;;6.43;5.93;;;24.80;99.90;;;;;;4943484;28;20275;-81
2022/09/04 08:24:35;;;;;;;7.70;7.20;;;25.10;99.90;;;;;;4936615;29;20274;-78
2022/09/04 08:27:10;;;;;;;6.47;6.03;;;25.30;99.90;;;;;;4935529;29;20215;-78
2022/09/04 08:30:03;;;;;;;3.33;3.13;;;25.60;99.90;;;;;;4935736;29;20246;-77
2022/09/04 08:32:57;;;;;;;5.37;4.97;;;25.60;99.90;;;;;;4931853;29;20278;-78
2022/09/04 08:35:29;;;;;;;4.43;3.27;;;25.80;99.90;;;;;;4928538;29;20676;-80
2022/09/04 08:38:17;;;;;;;5.10;4.70;;;26.10;99.90;;;;;;4933999;29;20251;-81
2022/09/04 08:41:35;;;;;;;3.53;3.23;;;26.20;99.90;;;;;;4934949;29;20203;-79
2022/09/04 08:44:34;;;;;;;7.67;7.17;;;26.40;99.90;;;;;;4879434;29;20271;-79
2022/09/04 08:47:31;;;;;;;4.37;3.93;;;26.30;99.90;;;;;;4935516;29;20250;-78
2022/09/04 08:50:37;;;;;;;5.87;5.47;;;26.00;99.90;;;;;;4937046;29;20199;-78
2022/09/04 08:53:31;;;;;;;7.50;7.00;;;26.30;99.90;;;;;;4898368;29;20287;-80
2022/09/04 08:56:08;;;;;;;7.57;7.07;;;26.60;99.90;;;;;;4899427;29;20209;-79
2022/09/04 08:59:17;;;;;;;7.97;7.47;;;27.00;99.90;;;;;;4923352;29;20230;-79
2022/09/04 09:02:31;;;;;;;7.07;6.57;;;27.20;99.90;;;;;;4935809;29;20271;-78
2022/09/04 09:05:32;;;;;;;5.80;5.30;;;26.80;99.90;;;;;;4938635;29;20773;-79
2022/09/04 09:08:38;;;;;;;6.50;6.00;;;26.70;99.90;;;;;;4940283;29;20633;-78
2022/09/04 09:11:49;;;;;;;7.47;7.07;;;26.90;99.90;;;;;;4940669;29;20251;-79
2022/09/04 09:14:49;;;;;;;7.33;6.83;;;27.40;99.90;;;;;;4935494;29;20290;-79
2022/09/04 09:17:35;;;;;;;3.53;3.33;;;27.40;99.90;;;;;;4917884;29;20291;-80
2022/09/04 09:20:27;;;;;;;7.90;7.40;;;27.60;99.90;;;;;;4938613;29;20649;-78
2022/09/04 09:23:19;;;;;;;7.20;6.80;;;27.80;99.90;;;;;;4938559;29;20239;-80
2022/09/04 09:25:57;;;;;;;7.47;6.87;;;27.80;99.90;;;;;;4921862;29;20211;-79
2022/09/04 09:29:02;;;;;;;6.90;6.40;;;27.80;99.90;;;;;;4940089;29;20203;-78
2022/09/04 09:32:23;;;;;;;7.47;6.97;;;28.00;99.90;;;;;;4903468;29;20219;-80
2022/09/04 09:35:54;;;;;;;7.23;6.77;;;27.70;99.90;;;;;;4937055;29;20216;-78
2022/09/04 09:38:47;;;;;;;6.40;6.00;;;27.80;99.90;;;;;;4938436;29;20202;-79
2022/09/04 09:41:50;;;;;;;6.50;6.10;;;27.90;99.90;;;;;;4934563;29;20207;-79
2022/09/04 09:44:38;;;;;;;6.67;6.27;;;28.20;99.90;;;;;;4931448;29;20207;-79
2022/09/04 09:47:37;;;;;;;7.30;6.83;;;28.30;99.90;;;;;;4939282;29;20227;-79
2022/09/04 09:50:33;;;;;;;6.37;5.97;;;28.20;99.90;;;;;;4939653;29;21185;-80
2022/09/04 09:53:39;;;;;;;7.10;6.70;;;27.50;99.90;;;;;;4937728;29;20231;-80
2022/09/04 09:56:26;;;;;;;7.20;6.80;;;27.30;99.90;;;;;;4924508;29;20759;-79
2022/09/04 09:59:23;;;;;;;7.33;6.90;;;27.70;99.90;;;;;;4935960;29;20731;-80
2022/09/04 10:02:23;;;;;;;7.10;6.70;;;27.80;99.90;;;;;;4939371;29;20211;-80
2022/09/04 10:05:38;;;;;;;7.10;6.60;;;28.10;99.90;;;;;;4935936;29;20215;-79
2022/09/04 10:08:36;;;;;;;2.53;2.43;;;28.20;99.90;;;;;;4938328;29;20240;-80
2022/09/04 10:11:22;;;;;;;4.07;3.83;;;28.10;99.90;;;;;;4938797;29;20571;-80
2022/09/04 10:14:29;;;;;;;2.43;2.23;;;28.10;99.90;;;;;;4932507;29;20294;-79
2022/09/04 10:17:26;;;;;;;3.17;2.97;;;27.50;99.90;;;;;;4936782;29;20287;-80
2022/09/04 10:20:22;;;;;;;6.53;6.07;;;27.20;99.90;;;;;;4937055;29;20337;-80
2022/09/04 10:23:20;;;;;;;3.80;3.60;;;27.00;99.90;;;;;;4936911;29;20724;-78
2022/09/04 10:26:09;;;;;;;2.23;2.13;;;26.90;99.90;;;;;;4935615;29;20203;-79
2022/09/04 10:29:08;;;;;;;4.87;4.57;;;26.60;99.90;;;;;;4938024;29;20582;-79
2022/09/04 10:32:14;;;;;;;6.90;6.50;;;26.50;99.90;;;;;;4937782;29;20811;-79
2022/09/04 10:35:03;;;;;;;6.67;6.27;;;26.40;99.90;;;;;;4837989;29;20214;-80
2022/09/04 10:37:55;;;;;;;2.30;2.00;;;26.30;99.90;;;;;;4935997;29;20274;-77
2022/09/04 10:40:37;;;;;;;2.10;1.90;;;26.30;99.90;;;;;;4943427;29;20223;-79
2022/09/04 10:43:24;;;;;;;2.67;2.47;;;26.00;99.90;;;;;;4932925;29;20218;-79
2022/09/04 10:46:02;;;;;;;3.33;3.07;;;26.00;99.90;;;;;;4932396;29;20246;-79
2022/09/04 10:49:06;;;;;;;2.40;2.20;;;26.20;99.90;;;;;;4931604;29;20217;-78
2022/09/04 10:52:05;;;;;;;4.23;4.03;;;26.10;99.90;;;;;;4921823;29;20230;-78
2022/09/04 10:54:53;;;;;;;2.73;2.37;;;26.00;99.90;;;;;;4936823;29;20627;-80
2022/09/04 10:57:37;;;;;;;2.40;2.27;;;26.10;99.90;;;;;;4935583;29;20199;-78
2022/09/04 11:00:09;;;;;;;2.10;1.90;;;26.10;99.90;;;;;;4940462;29;20223;-78
2022/09/04 11:03:10;;;;;;;3.73;3.53;;;26.20;99.90;;;;;;4938235;29;20221;-78
2022/09/04 11:05:56;;;;;;;4.23;3.90;;;26.10;99.90;;;;;;4934936;29;20199;-77
2022/09/04 11:08:55;;;;;;;4.30;2.47;;;26.10;99.90;;;;;;4931419;29;20210;-78
2022/09/04 11:11:51;;;;;;;5.20;4.80;;;26.00;99.90;;;;;;4933931;29;20266;-79
2022/09/04 11:14:55;;;;;;;2.70;2.57;;;25.70;99.90;;;;;;4931974;29;20230;-78
2022/09/04 11:17:40;;;;;;;4.07;3.87;;;25.40;99.90;;;;;;4931922;29;20203;-77
2022/09/04 11:20:46;;;;;;;5.20;4.90;;;25.40;99.90;;;;;;4938462;29;20627;-79
2022/09/04 11:23:58;;;;;;;6.17;5.63;;;25.20;99.90;;;;;;4933466;29;20219;-78
2022/09/04 11:27:19;;;;;;;3.13;2.93;;;25.30;99.90;;;;;;4939866;29;20263;-77
2022/09/04 11:30:05;;;;;;;2.47;2.30;;;25.40;99.90;;;;;;4896499;29;20262;-79
2022/09/04 11:32:57;;;;;;;5.80;5.40;;;25.50;99.90;;;;;;4947056;29;20232;-77
2022/09/04 11:35:53;;;;;;;2.80;2.60;;;25.50;99.90;;;;;;4932280;29;20200;-77
2022/09/04 11:38:42;;;;;;;5.70;5.40;;;25.60;99.90;;;;;;4932586;29;20203;-78
2022/09/04 11:41:43;;;;;;;5.90;5.50;;;25.70;99.90;;;;;;4934566;29;20299;-77
2022/09/04 11:44:34;;;;;;;2.70;2.30;;;25.50;99.90;;;;;;4938754;28;20208;-78
2022/09/04 11:47:30;;;;;;;4.83;2.80;;;25.60;99.90;;;;;;4935364;29;20207;-78
2022/09/04 11:50:15;;;;;;;3.07;2.67;;;25.60;99.90;;;;;;4932617;29;20203;-77
2022/09/04 11:53:00;;;;;;;3.20;2.90;;;25.60;99.90;;;;;;4940648;29;20637;-78
2022/09/04 11:56:05;;;;;;;5.40;5.00;;;25.70;99.90;;;;;;4937616;29;20613;-78
2022/09/04 11:58:50;;;;;;;3.57;3.27;;;25.80;99.90;;;;;;4926411;29;20203;-77
2022/09/04 12:01:38;;;;;;;3.37;2.50;;;25.70;99.90;;;;;;4939230;29;20195;-81
2022/09/04 12:04:29;;;;;;;2.50;2.30;;;25.80;99.90;;;;;;4939214;29;20206;-78
2022/09/04 12:07:12;;;;;;;3.27;2.40;;;25.90;99.90;;;;;;4942081;29;20203;-78
2022/09/04 12:10:16;;;;;;;2.60;2.40;;;25.80;99.90;;;;;;4944711;28;20203;-77
2022/09/04 12:13:19;;;;;;;4.40;4.10;;;25.60;99.90;;;;;;4914401;29;20223;-78
2022/09/04 12:16:09;;;;;;;2.90;2.53;;;25.70;99.90;;;;;;4896767;29;20200;-78
2022/09/04 12:18:57;;;;;;;2.20;2.00;;;25.70;99.90;;;;;;4938612;29;20203;-78
2022/09/04 12:21:47;;;;;;;2.47;2.27;;;25.40;99.90;;;;;;4930496;29;20657;-78
2022/09/04 12:24:43;;;;;;;6.53;6.03;;;25.20;99.90;;;;;;4917544;29;20306;-78
2022/09/04 12:27:35;;;;;;;7.30;6.70;;;25.20;99.90;;;;;;4932919;29;20199;-78
2022/09/04 12:30:09;;;;;;;7.53;6.83;;;25.30;99.90;;;;;;4938904;29;20203;-78
2022/09/04 12:33:19;;;;;;;6.50;6.00;;;25.30;99.90;;;;;;4939501;29;20227;-79
2022/09/04 12:36:15;;;;;;;6.10;5.70;;;25.30;99.90;;;;;;4937476;29;20199;-78
2022/09/04 12:39:10;;;;;;;6.23;5.73;;;25.20;99.90;;;;;;4939423;29;20272;-78
2022/09/04 12:41:48;;;;;;;6.30;5.90;;;25.10;99.90;;;;;;4937131;29;20218;-79
2022/09/04 12:44:30;;;;;;;5.90;5.50;;;25.10;99.90;;;;;;4933320;29;20206;-78
2022/09/04 12:47:12;;;;;;;6.10;5.70;;;25.10;99.90;;;;;;4940112;29;20207;-78
2022/09/04 12:50:02;;;;;;;5.93;5.50;;;25.10;99.90;;;;;;4931026;29;20207;-79
2022/09/04 12:52:44;;;;;;;2.90;2.20;;;25.10;99.90;;;;;;4933297;29;20275;-78
2022/09/04 12:55:18;;;;;;;2.27;2.13;;;25.00;99.90;;;;;;4932047;29;20278;-78
2022/09/04 12:57:56;;;;;;;2.20;2.10;;;24.90;99.90;;;;;;4931214;29;20213;-77
2022/09/04 13:00:31;;;;;;;5.47;5.17;;;24.90;99.90;;;;;;4939130;29;20267;-78
2022/09/04 13:03:10;;;;;;;5.60;5.20;;;25.00;99.90;;;;;;4933552;29;20760;-79
2022/09/04 13:05:53;;;;;;;5.70;5.30;;;25.00;99.90;;;;;;4938684;29;20661;-78
2022/09/04 13:08:30;;;;;;;5.10;4.73;;;25.10;99.90;;;;;;4942291;29;20232;-78
2022/09/04 13:11:13;;;;;;;3.80;3.60;;;25.10;99.90;;;;;;4944855;29;20203;-78
2022/09/04 13:14:08;;;;;;;4.40;4.10;;;25.10;99.90;;;;;;4938044;29;20292;-79
2022/09/04 13:16:40;;;;;;;4.10;3.90;;;25.00;99.90;;;;;;4935839;29;20251;-77
2022/09/04 13:19:16;;;;;;;4.00;3.70;;;24.90;99.90;;;;;;4931451;29;20206;-77
2022/09/04 13:21:57;;;;;;;4.80;4.50;;;24.90;99.90;;;;;;4937972;29;20279;-78
2022/09/04 13:24:34;;;;;;;4.37;4.03;;;25.00;99.90;;;;;;4933998;29;20203;-79
2022/09/04 13:27:25;;;;;;;5.77;5.27;;;25.00;99.90;;;;;;4942256;29;20206;-77
2022/09/04 13:30:02;;;;;;;5.40;5.10;;;24.90;99.90;;;;;;4942458;29;20195;-78
2022/09/04 13:32:53;;;;;;;5.43;5.03;;;24.90;99.90;;;;;;4933703;29;20709;-80
2022/09/04 13:35:40;;;;;;;4.90;4.60;;;24.90;99.90;;;;;;4934103;29;20247;-77
2022/09/04 13:38:52;;;;;;;4.67;4.27;;;24.90;99.90;;;;;;4935206;29;20211;-78
2022/09/04 13:41:49;;;;;;;5.73;5.33;;;24.80;99.90;;;;;;4915626;29;20211;-78
2022/09/04 13:44:51;;;;;;;4.70;4.40;;;24.80;99.90;;;;;;4925147;29;20681;-79
2022/09/04 13:47:21;;;;;;;2.30;2.10;;;24.80;99.90;;;;;;4921292;29;20447;-79
2022/09/04 13:49:54;;;;;;;2.27;2.17;;;24.90;99.90;;;;;;4936862;29;20199;-79
2022/09/04 13:52:28;;;;;;;2.50;2.30;;;24.90;99.90;;;;;;4930686;29;20223;-79
2022/09/04 13:55:02;;;;;;;2.50;2.30;;;24.90;99.90;;;;;;4936717;29;20203;-79
2022/09/04 13:57:35;;;;;;;2.57;2.37;;;24.90;99.90;;;;;;4935944;29;20203;-80
2022/09/04 14:00:06;;;;;;;3.13;2.20;;;24.90;99.90;;;;;;4934572;29;20211;-79
2022/09/04 14:02:37;;;;;;;2.47;2.20;;;24.90;99.90;;;;;;4937028;29;20250;-78
2022/09/04 14:05:12;;;;;;;2.00;1.90;;;24.90;99.90;;;;;;4938183;29;20725;-79
2022/09/04 14:07:41;;;;;;;2.80;2.30;;;24.90;99.90;;;;;;4937280;29;20243;-79
2022/09/04 14:10:12;;;;;;;3.77;2.50;;;24.90;99.90;;;;;;4935401;29;20211;-79
2022/09/04 14:13:04;;;;;;;5.70;5.40;;;24.90;99.90;;;;;;4935343;29;20219;-78
2022/09/04 14:16:00;;;;;;;5.37;5.07;;;25.00;99.90;;;;;;4927995;29;20212;-82